sensor_id;sensor_type;location;lat;lon;timestamp;temperature;humidity
30764;DHT22;17497;51.476;7.770;2022-10-16T00:01:17;13.20;99.90
30764;DHT22;17497;51.476;7.770;2022-10-16T00:03:44;13.20;99.90
30764;DHT22;17497;51.476;7.770;2022-10-16T00:06:12;13.20;99.90
30764;DHT22;17497;51.476;7.770;2022-10-16T00:08:39;13.20;99.90
30764;DHT22;17497;51.476;7.770;2022-10-16T00:11:12;13.20;99.90
30764;DHT22;17497;51.476;7.770;2022-10-16T00:13:41;13.20;99.90
30764;DHT22;17497;51.476;7.770;2022-10-16T00:16:09;13.20;99.90
30764;DHT22;17497;51.476;7.770;2022-10-16T00:18:36;13.20;99.90
30764;DHT22;17497;51.476;7.770;2022-10-16T00:21:18;13.10;99.90
30764;DHT22;17497;51.476;7.770;2022-10-16T00:23:46;13.10;99.90
30764;DHT22;17497;51.476;7.770;2022-10-16T00:26:16;13.10;99.90
30764;DHT22;17497;51.476;7.770;2022-10-16T00:28:48;13.10;99.90
30764;DHT22;17497;51.476;7.770;2022-10-16T00:33:50;13.10;99.90
30764;DHT22;17497;51.476;7.770;2022-10-16T00:36:19;13.10;99.90
30764;DHT22;17497;51.476;7.770;2022-10-16T00:38:50;13.10;99.90
30764;DHT22;17497;51.476;7.770;2022-10-16T00:41:20;13.10;99.90
30764;DHT22;17497;51.476;7.770;2022-10-16T00:44:01;13.10;99.90
30764;DHT22;17497;51.476;7.770;2022-10-16T00:46:34;13.10;99.90
30764;DHT22;17497;51.476;7.770;2022-10-16T00:49:10;13.00;99.90
30764;DHT22;17497;51.476;7.770;2022-10-16T00:51:49;13.00;99.90
30764;DHT22;17497;51.476;7.770;2022-10-16T00:54:19;13.00;99.90
30764;DHT22;17497;51.476;7.770;2022-10-16T00:56:47;13.00;99.90
30764;DHT22;17497;51.476;7.770;2022-10-16T01:02:02;13.00;99.90
30764;DHT22;17497;51.476;7.770;2022-10-16T01:04:39;13.00;99.90
30764;DHT22;17497;51.476;7.770;2022-10-16T01:20:44;13.10;99.90
30764;DHT22;17497;51.476;7.770;2022-10-16T01:28:27;13.00;99.90
30764;DHT22;17497;51.476;7.770;2022-10-16T01:30:58;13.00;99.90
30764;DHT22;17497;51.476;7.770;2022-10-16T01:33:47;12.90;99.90
30764;DHT22;17497;51.476;7.770;2022-10-16T01:36:22;12.90;99.90
30764;DHT22;17497;51.476;7.770;2022-10-16T01:38:52;12.90;99.90
30764;DHT22;17497;51.476;7.770;2022-10-16T01:41:48;12.90;99.90
30764;DHT22;17497;51.476;7.770;2022-10-16T01:44:22;12.90;99.90
30764;DHT22;17497;51.476;7.770;2022-10-16T01:46:52;12.90;99.90
30764;DHT22;17497;51.476;7.770;2022-10-16T01:49:21;12.90;99.90
30764;DHT22;17497;51.476;7.770;2022-10-16T01:51:53;12.90;99.90
30764;DHT22;17497;51.476;7.770;2022-10-16T01:54:24;12.90;99.90
30764;DHT22;17497;51.476;7.770;2022-10-16T01:56:52;12.90;99.90
30764;DHT22;17497;51.476;7.770;2022-10-16T01:59:23;13.00;99.90
30764;DHT22;17497;51.476;7.770;2022-10-16T02:02:05;13.00;99.90
30764;DHT22;17497;51.476;7.770;2022-10-16T02:04:54;13.00;99.90
30764;DHT22;17497;51.476;7.770;2022-10-16T02:07:24;13.00;99.90
30764;DHT22;17497;51.476;7.770;2022-10-16T02:09:50;12.90;99.90
30764;DHT22;17497;51.476;7.770;2022-10-16T02:12:28;12.90;99.90
30764;DHT22;17497;51.476;7.770;2022-10-16T02:14:57;12.90;99.90
30764;DHT22;17497;51.476;7.770;2022-10-16T02:17:24;12.90;99.90
30764;DHT22;17497;51.476;7.770;2022-10-16T02:19:54;12.80;99.90
30764;DHT22;17497;51.476;7.770;2022-10-16T02:22:30;12.80;99.90
30764;DHT22;17497;51.476;7.770;2022-10-16T02:25:32;12.80;99.90
30764;DHT22;17497;51.476;7.770;2022-10-16T02:28:06;12.80;99.90
30764;DHT22;17497;51.476;7.770;2022-10-16T02:30:41;12.90;99.90
30764;DHT22;17497;51.476;7.770;2022-10-16T02:33:10;12.90;99.90
30764;DHT22;17497;51.476;7.770;2022-10-16T02:35:41;12.90;99.90
30764;DHT22;17497;51.476;7.770;2022-10-16T02:38:08;12.90;99.90
30764;DHT22;17497;51.476;7.770;2022-10-16T02:40:41;12.90;99.90
30764;DHT22;17497;51.476;7.770;2022-10-16T02:43:09;12.90;99.90
30764;DHT22;17497;51.476;7.770;2022-10-16T02:45:37;12.90;99.90
30764;DHT22;17497;51.476;7.770;2022-10-16T02:48:04;12.90;99.90
30764;DHT22;17497;51.476;7.770;2022-10-16T02:50:31;12.90;99.90
30764;DHT22;17497;51.476;7.770;2022-10-16T02:52:58;12.80;99.90
30764;DHT22;17497;51.476;7.770;2022-10-16T02:55:24;12.90;99.90
30764;DHT22;17497;51.476;7.770;2022-10-16T02:57:51;12.80;99.90
30764;DHT22;17497;51.476;7.770;2022-10-16T03:00:19;12.80;99.90
30764;DHT22;17497;51.476;7.770;2022-10-16T03:02:46;12.80;99.90
30764;DHT22;17497;51.476;7.770;2022-10-16T03:05:14;12.70;99.90
30764;DHT22;17497;51.476;7.770;2022-10-16T03:07:41;12.70;99.90
30764;DHT22;17497;51.476;7.770;2022-10-16T03:10:08;12.70;99.90
30764;DHT22;17497;51.476;7.770;2022-10-16T03:12:35;12.70;99.90
30764;DHT22;17497;51.476;7.770;2022-10-16T03:15:02;12.80;99.90
30764;DHT22;17497;51.476;7.770;2022-10-16T03:17:29;12.70;99.90
30764;DHT22;17497;51.476;7.770;2022-10-16T03:19:55;12.80;99.90
30764;DHT22;17497;51.476;7.770;2022-10-16T03:22:22;12.80;99.90
30764;DHT22;17497;51.476;7.770;2022-10-16T03:24:49;12.80;99.90
30764;DHT22;17497;51.476;7.770;2022-10-16T03:27:15;12.80;99.90
30764;DHT22;17497;51.476;7.770;2022-10-16T03:29:42;12.80;99.90
30764;DHT22;17497;51.476;7.770;2022-10-16T03:32:09;12.90;99.90
30764;DHT22;17497;51.476;7.770;2022-10-16T03:34:35;13.10;99.90
30764;DHT22;17497;51.476;7.770;2022-10-16T03:37:02;13.20;99.90
30764;DHT22;17497;51.476;7.770;2022-10-16T03:39:29;13.30;99.90
30764;DHT22;17497;51.476;7.770;2022-10-16T03:41:56;13.30;99.90
30764;DHT22;17497;51.476;7.770;2022-10-16T03:44:22;13.40;99.90
30764;DHT22;17497;51.476;7.770;2022-10-16T03:46:49;13.40;99.90
30764;DHT22;17497;51.476;7.770;2022-10-16T03:49:16;13.30;99.90
30764;DHT22;17497;51.476;7.770;2022-10-16T03:51:42;13.30;99.90
30764;DHT22;17497;51.476;7.770;2022-10-16T03:54:10;13.30;99.90
30764;DHT22;17497;51.476;7.770;2022-10-16T03:56:37;13.30;99.90
30764;DHT22;17497;51.476;7.770;2022-10-16T03:59:03;13.30;99.90
30764;DHT22;17497;51.476;7.770;2022-10-16T04:01:30;13.40;99.90
30764;DHT22;17497;51.476;7.770;2022-10-16T04:03:57;13.40;99.90
30764;DHT22;17497;51.476;7.770;2022-10-16T04:06:24;13.40;99.90
30764;DHT22;17497;51.476;7.770;2022-10-16T04:08:51;13.40;99.90
30764;DHT22;17497;51.476;7.770;2022-10-16T04:11:18;13.40;99.90
30764;DHT22;17497;51.476;7.770;2022-10-16T04:13:45;13.50;99.90
30764;DHT22;17497;51.476;7.770;2022-10-16T04:16:11;13.50;99.90
30764;DHT22;17497;51.476;7.770;2022-10-16T04:18:38;13.40;99.90
30764;DHT22;17497;51.476;7.770;2022-10-16T04:21:06;13.40;99.90
30764;DHT22;17497;51.476;7.770;2022-10-16T04:23:33;13.40;99.90
30764;DHT22;17497;51.476;7.770;2022-10-16T04:26:00;13.30;99.90
30764;DHT22;17497;51.476;7.770;2022-10-16T04:28:27;13.30;99.90
30764;DHT22;17497;51.476;7.770;2022-10-16T04:30:54;13.30;99.90
30764;DHT22;17497;51.476;7.770;2022-10-16T04:33:21;13.30;99.90
30764;DHT22;17497;51.476;7.770;2022-10-16T04:35:47;13.30;99.90
30764;DHT22;17497;51.476;7.770;2022-10-16T04:38:14;13.40;99.90
30764;DHT22;17497;51.476;7.770;2022-10-16T04:40:42;13.40;99.90
30764;DHT22;17497;51.476;7.770;2022-10-16T04:43:09;13.40;99.90
30764;DHT22;17497;51.476;7.770;2022-10-16T04:45:36;13.40;99.90
30764;DHT22;17497;51.476;7.770;2022-10-16T04:48:03;13.50;99.90
30764;DHT22;17497;51.476;7.770;2022-10-16T04:50:30;13.50;99.90
30764;DHT22;17497;51.476;7.770;2022-10-16T04:52:56;13.50;99.90
30764;DHT22;17497;51.476;7.770;2022-10-16T04:55:23;13.50;99.90
30764;DHT22;17497;51.476;7.770;2022-10-16T04:57:50;13.60;99.90
30764;DHT22;17497;51.476;7.770;2022-10-16T05:00:17;13.50;99.90
30764;DHT22;17497;51.476;7.770;2022-10-16T05:02:43;13.50;99.90
30764;DHT22;17497;51.476;7.770;2022-10-16T05:05:10;13.50;99.90
30764;DHT22;17497;51.476;7.770;2022-10-16T05:07:37;13.50;99.90
30764;DHT22;17497;51.476;7.770;2022-10-16T05:10:04;13.50;99.90
30764;DHT22;17497;51.476;7.770;2022-10-16T05:12:31;13.50;99.90
30764;DHT22;17497;51.476;7.770;2022-10-16T05:14:57;13.60;99.90
30764;DHT22;17497;51.476;7.770;2022-10-16T05:17:26;13.50;99.90
30764;DHT22;17497;51.476;7.770;2022-10-16T05:19:53;13.60;99.90
30764;DHT22;17497;51.476;7.770;2022-10-16T05:22:20;13.50;99.90
30764;DHT22;17497;51.476;7.770;2022-10-16T05:24:47;13.50;99.90
30764;DHT22;17497;51.476;7.770;2022-10-16T05:27:14;13.50;99.90
30764;DHT22;17497;51.476;7.770;2022-10-16T05:29:46;13.40;99.90
30764;DHT22;17497;51.476;7.770;2022-10-16T05:32:13;13.40;99.90
30764;DHT22;17497;51.476;7.770;2022-10-16T05:34:40;13.40;99.90
30764;DHT22;17497;51.476;7.770;2022-10-16T05:37:07;13.40;99.90
30764;DHT22;17497;51.476;7.770;2022-10-16T05:39:34;13.40;99.90
30764;DHT22;17497;51.476;7.770;2022-10-16T05:42:01;13.50;99.90
30764;DHT22;17497;51.476;7.770;2022-10-16T05:44:28;13.50;99.90
30764;DHT22;17497;51.476;7.770;2022-10-16T05:46:54;13.50;99.90
30764;DHT22;17497;51.476;7.770;2022-10-16T05:49:21;13.60;99.90
30764;DHT22;17497;51.476;7.770;2022-10-16T05:51:48;13.50;99.90
30764;DHT22;17497;51.476;7.770;2022-10-16T05:54:14;13.50;99.90
30764;DHT22;17497;51.476;7.770;2022-10-16T05:56:41;13.50;99.90
30764;DHT22;17497;51.476;7.770;2022-10-16T05:59:08;13.40;99.90
30764;DHT22;17497;51.476;7.770;2022-10-16T06:01:34;13.40;99.90
30764;DHT22;17497;51.476;7.770;2022-10-16T06:04:02;13.40;99.90
30764;DHT22;17497;51.476;7.770;2022-10-16T06:06:29;13.40;99.90
30764;DHT22;17497;51.476;7.770;2022-10-16T06:08:56;13.40;99.90
30764;DHT22;17497;51.476;7.770;2022-10-16T06:11:27;13.40;99.90
30764;DHT22;17497;51.476;7.770;2022-10-16T06:13:57;13.30;99.90
30764;DHT22;17497;51.476;7.770;2022-10-16T06:16:25;13.40;99.90
30764;DHT22;17497;51.476;7.770;2022-10-16T06:18:54;13.50;99.90
30764;DHT22;17497;51.476;7.770;2022-10-16T06:21:26;13.50;99.90
30764;DHT22;17497;51.476;7.770;2022-10-16T06:23:55;13.50;99.90
30764;DHT22;17497;51.476;7.770;2022-10-16T06:26:25;13.50;99.90
30764;DHT22;17497;51.476;7.770;2022-10-16T06:28:55;13.60;99.90
30764;DHT22;17497;51.476;7.770;2022-10-16T06:31:23;13.50;99.90
30764;DHT22;17497;51.476;7.770;2022-10-16T06:33:54;13.40;99.90
30764;DHT22;17497;51.476;7.770;2022-10-16T06:36:21;13.40;99.90
30764;DHT22;17497;51.476;7.770;2022-10-16T06:38:48;13.40;99.90
30764;DHT22;17497;51.476;7.770;2022-10-16T06:41:17;13.40;99.90
30764;DHT22;17497;51.476;7.770;2022-10-16T06:43:44;13.50;99.90
30764;DHT22;17497;51.476;7.770;2022-10-16T06:46:13;13.40;99.90
30764;DHT22;17497;51.476;7.770;2022-10-16T06:48:40;13.50;99.90
30764;DHT22;17497;51.476;7.770;2022-10-16T06:51:11;13.50;99.90
30764;DHT22;17497;51.476;7.770;2022-10-16T06:53:41;13.50;99.90
30764;DHT22;17497;51.476;7.770;2022-10-16T06:56:29;13.50;99.90
30764;DHT22;17497;51.476;7.770;2022-10-16T06:58:57;13.60;99.90
30764;DHT22;17497;51.476;7.770;2022-10-16T07:01:24;13.70;99.90
30764;DHT22;17497;51.476;7.770;2022-10-16T07:03:51;13.80;99.90
30764;DHT22;17497;51.476;7.770;2022-10-16T07:06:21;13.90;99.90
30764;DHT22;17497;51.476;7.770;2022-10-16T07:08:49;14.00;99.90
30764;DHT22;17497;51.476;7.770;2022-10-16T07:11:18;14.10;99.90
30764;DHT22;17497;51.476;7.770;2022-10-16T07:13:46;14.10;99.90
30764;DHT22;17497;51.476;7.770;2022-10-16T07:16:22;14.20;99.90
30764;DHT22;17497;51.476;7.770;2022-10-16T07:18:49;14.20;99.90
30764;DHT22;17497;51.476;7.770;2022-10-16T07:21:21;14.20;99.90
30764;DHT22;17497;51.476;7.770;2022-10-16T07:23:57;14.20;99.90
30764;DHT22;17497;51.476;7.770;2022-10-16T07:26:26;14.30;99.90
30764;DHT22;17497;51.476;7.770;2022-10-16T07:28:53;14.40;99.90
30764;DHT22;17497;51.476;7.770;2022-10-16T07:31:21;14.50;99.90
30764;DHT22;17497;51.476;7.770;2022-10-16T07:33:48;14.60;99.90
30764;DHT22;17497;51.476;7.770;2022-10-16T07:36:16;14.60;99.90
30764;DHT22;17497;51.476;7.770;2022-10-16T07:38:44;14.80;99.90
30764;DHT22;17497;51.476;7.770;2022-10-16T07:41:14;14.90;99.90
30764;DHT22;17497;51.476;7.770;2022-10-16T07:43:49;14.90;99.90
30764;DHT22;17497;51.476;7.770;2022-10-16T07:46:17;14.90;99.90
30764;DHT22;17497;51.476;7.770;2022-10-16T07:48:45;14.80;99.90
30764;DHT22;17497;51.476;7.770;2022-10-16T07:51:15;14.90;99.90
30764;DHT22;17497;51.476;7.770;2022-10-16T07:53:42;14.90;99.90
30764;DHT22;17497;51.476;7.770;2022-10-16T07:56:09;14.90;99.90
30764;DHT22;17497;51.476;7.770;2022-10-16T07:58:36;14.90;99.90
30764;DHT22;17497;51.476;7.770;2022-10-16T08:01:09;15.00;99.90
30764;DHT22;17497;51.476;7.770;2022-10-16T08:03:36;15.10;99.90
30764;DHT22;17497;51.476;7.770;2022-10-16T08:06:04;15.00;99.90
30764;DHT22;17497;51.476;7.770;2022-10-16T08:08:34;15.00;99.90
30764;DHT22;17497;51.476;7.770;2022-10-16T08:11:01;14.90;99.90
30764;DHT22;17497;51.476;7.770;2022-10-16T08:13:31;14.90;99.90
30764;DHT22;17497;51.476;7.770;2022-10-16T08:15:58;14.80;99.90
30764;DHT22;17497;51.476;7.770;2022-10-16T08:18:24;14.80;99.90
30764;DHT22;17497;51.476;7.770;2022-10-16T08:20:56;14.90;99.90
30764;DHT22;17497;51.476;7.770;2022-10-16T08:23:24;14.80;99.90
30764;DHT22;17497;51.476;7.770;2022-10-16T08:25:53;14.80;99.90
30764;DHT22;17497;51.476;7.770;2022-10-16T08:28:20;14.80;99.90
30764;DHT22;17497;51.476;7.770;2022-10-16T08:30:47;14.90;99.90
30764;DHT22;17497;51.476;7.770;2022-10-16T08:33:14;15.00;99.90
30764;DHT22;17497;51.476;7.770;2022-10-16T08:35:41;15.00;99.90
30764;DHT22;17497;51.476;7.770;2022-10-16T08:38:07;15.00;99.90
30764;DHT22;17497;51.476;7.770;2022-10-16T08:40:36;15.20;99.90
30764;DHT22;17497;51.476;7.770;2022-10-16T08:48:46;15.40;99.90
30764;DHT22;17497;51.476;7.770;2022-10-16T08:51:31;15.40;99.90
30764;DHT22;17497;51.476;7.770;2022-10-16T08:56:28;15.60;99.90
30764;DHT22;17497;51.476;7.770;2022-10-16T08:58:57;15.50;99.90
30764;DHT22;17497;51.476;7.770;2022-10-16T09:01:41;15.60;99.90
30764;DHT22;17497;51.476;7.770;2022-10-16T09:07:00;15.70;99.90
30764;DHT22;17497;51.476;7.770;2022-10-16T09:15:05;16.00;99.90
30764;DHT22;17497;51.476;7.770;2022-10-16T09:23:21;16.10;99.90
30764;DHT22;17497;51.476;7.770;2022-10-16T09:25:49;16.20;99.90
30764;DHT22;17497;51.476;7.770;2022-10-16T09:28:17;16.30;99.90
30764;DHT22;17497;51.476;7.770;2022-10-16T09:30:45;16.30;99.90
30764;DHT22;17497;51.476;7.770;2022-10-16T09:33:13;16.40;99.90
30764;DHT22;17497;51.476;7.770;2022-10-16T09:35:49;16.50;99.90
30764;DHT22;17497;51.476;7.770;2022-10-16T09:38:29;16.60;99.90
30764;DHT22;17497;51.476;7.770;2022-10-16T09:41:01;16.60;99.90
30764;DHT22;17497;51.476;7.770;2022-10-16T09:46:19;16.80;99.90
30764;DHT22;17497;51.476;7.770;2022-10-16T09:48:49;16.90;99.90
30764;DHT22;17497;51.476;7.770;2022-10-16T09:53:47;17.00;99.90
30764;DHT22;17497;51.476;7.770;2022-10-16T09:56:26;17.20;99.90
30764;DHT22;17497;51.476;7.770;2022-10-16T09:58:55;17.30;99.90
30764;DHT22;17497;51.476;7.770;2022-10-16T10:01:28;17.40;99.90
30764;DHT22;17497;51.476;7.770;2022-10-16T10:03:57;17.60;99.90
30764;DHT22;17497;51.476;7.770;2022-10-16T10:06:31;17.70;99.90
30764;DHT22;17497;51.476;7.770;2022-10-16T10:09:22;17.80;99.90
30764;DHT22;17497;51.476;7.770;2022-10-16T10:11:53;18.10;99.90
30764;DHT22;17497;51.476;7.770;2022-10-16T10:19:39;18.20;99.90
30764;DHT22;17497;51.476;7.770;2022-10-16T10:25:00;18.50;99.90
30764;DHT22;17497;51.476;7.770;2022-10-16T10:27:56;18.20;99.90
30764;DHT22;17497;51.476;7.770;2022-10-16T10:38:57;17.90;99.90
30764;DHT22;17497;51.476;7.770;2022-10-16T10:47:18;18.00;99.90
30764;DHT22;17497;51.476;7.770;2022-10-16T10:52:58;18.60;99.90
30764;DHT22;17497;51.476;7.770;2022-10-16T10:58:27;19.50;99.90
30764;DHT22;17497;51.476;7.770;2022-10-16T11:06:30;19.10;99.90
30764;DHT22;17497;51.476;7.770;2022-10-16T11:09:12;19.20;99.90
30764;DHT22;17497;51.476;7.770;2022-10-16T11:11:45;19.20;99.90
30764;DHT22;17497;51.476;7.770;2022-10-16T11:14:26;19.10;99.90
30764;DHT22;17497;51.476;7.770;2022-10-16T11:16:59;19.50;99.90
30764;DHT22;17497;51.476;7.770;2022-10-16T11:19:34;19.70;99.90
30764;DHT22;17497;51.476;7.770;2022-10-16T11:27:34;19.50;99.90
30764;DHT22;17497;51.476;7.770;2022-10-16T11:30:06;19.60;99.90
30764;DHT22;17497;51.476;7.770;2022-10-16T11:38:34;20.00;99.90
30764;DHT22;17497;51.476;7.770;2022-10-16T11:46:31;19.90;99.90
30764;DHT22;17497;51.476;7.770;2022-10-16T11:49:13;20.20;99.90
30764;DHT22;17497;51.476;7.770;2022-10-16T11:52:00;20.20;99.90
30764;DHT22;17497;51.476;7.770;2022-10-16T11:54:51;20.10;99.90
30764;DHT22;17497;51.476;7.770;2022-10-16T11:57:32;19.80;99.90
30764;DHT22;17497;51.476;7.770;2022-10-16T12:05:47;20.30;99.90
30764;DHT22;17497;51.476;7.770;2022-10-16T12:08:17;20.40;99.90
30764;DHT22;17497;51.476;7.770;2022-10-16T12:10:46;20.40;99.90
30764;DHT22;17497;51.476;7.770;2022-10-16T12:13:34;20.50;99.90
30764;DHT22;17497;51.476;7.770;2022-10-16T12:18:45;21.30;99.90
30764;DHT22;17497;51.476;7.770;2022-10-16T12:21:13;21.40;99.90
30764;DHT22;17497;51.476;7.770;2022-10-16T12:23:54;21.50;99.90
30764;DHT22;17497;51.476;7.770;2022-10-16T12:26:39;21.20;99.90
30764;DHT22;17497;51.476;7.770;2022-10-16T12:29:23;20.90;99.90
30764;DHT22;17497;51.476;7.770;2022-10-16T12:34:41;20.60;99.90
30764;DHT22;17497;51.476;7.770;2022-10-16T12:37:21;20.40;99.90
30764;DHT22;17497;51.476;7.770;2022-10-16T12:39:50;20.30;99.90
30764;DHT22;17497;51.476;7.770;2022-10-16T12:44:50;20.40;99.90
30764;DHT22;17497;51.476;7.770;2022-10-16T12:49:59;20.30;99.90
30764;DHT22;17497;51.476;7.770;2022-10-16T12:52:38;20.60;99.90
30764;DHT22;17497;51.476;7.770;2022-10-16T12:55:12;20.60;99.90
30764;DHT22;17497;51.476;7.770;2022-10-16T13:01:11;20.40;99.90
30764;DHT22;17497;51.476;7.770;2022-10-16T13:06:33;20.60;99.90
30764;DHT22;17497;51.476;7.770;2022-10-16T13:09:20;20.60;99.90
30764;DHT22;17497;51.476;7.770;2022-10-16T13:22:48;20.50;99.90
30764;DHT22;17497;51.476;7.770;2022-10-16T13:25:44;20.60;99.90
30764;DHT22;17497;51.476;7.770;2022-10-16T13:28:13;20.90;99.90
30764;DHT22;17497;51.476;7.770;2022-10-16T13:30:42;21.10;99.90
30764;DHT22;17497;51.476;7.770;2022-10-16T13:33:14;21.40;99.90
30764;DHT22;17497;51.476;7.770;2022-10-16T13:35:52;21.20;99.90
30764;DHT22;17497;51.476;7.770;2022-10-16T13:38:25;21.30;99.90
30764;DHT22;17497;51.476;7.770;2022-10-16T13:43:35;21.30;99.90
30764;DHT22;17497;51.476;7.770;2022-10-16T13:46:06;21.50;99.90
30764;DHT22;17497;51.476;7.770;2022-10-16T13:48:34;21.50;99.90
30764;DHT22;17497;51.476;7.770;2022-10-16T13:53:38;21.10;99.90
30764;DHT22;17497;51.476;7.770;2022-10-16T13:56:09;21.00;99.90
30764;DHT22;17497;51.476;7.770;2022-10-16T13:58:37;20.60;99.90
30764;DHT22;17497;51.476;7.770;2022-10-16T14:01:06;20.40;99.90
30764;DHT22;17497;51.476;7.770;2022-10-16T14:03:40;20.40;99.90
30764;DHT22;17497;51.476;7.770;2022-10-16T14:06:13;20.60;99.90
30764;DHT22;17497;51.476;7.770;2022-10-16T14:08:53;21.10;99.90
30764;DHT22;17497;51.476;7.770;2022-10-16T14:11:22;21.80;99.90
30764;DHT22;17497;51.476;7.770;2022-10-16T14:13:59;22.40;99.90
30764;DHT22;17497;51.476;7.770;2022-10-16T14:16:31;22.00;99.90
30764;DHT22;17497;51.476;7.770;2022-10-16T14:19:04;22.10;99.90
30764;DHT22;17497;51.476;7.770;2022-10-16T14:21:37;22.30;99.90
30764;DHT22;17497;51.476;7.770;2022-10-16T14:24:21;22.80;99.90
30764;DHT22;17497;51.476;7.770;2022-10-16T14:26:51;22.80;99.90
30764;DHT22;17497;51.476;7.770;2022-10-16T14:29:19;23.10;99.90
30764;DHT22;17497;51.476;7.770;2022-10-16T14:32:00;23.00;99.90
30764;DHT22;17497;51.476;7.770;2022-10-16T14:34:38;22.90;99.90
30764;DHT22;17497;51.476;7.770;2022-10-16T14:37:24;22.70;99.90
30764;DHT22;17497;51.476;7.770;2022-10-16T14:39:54;22.40;99.90
30764;DHT22;17497;51.476;7.770;2022-10-16T14:42:23;21.60;99.90
30764;DHT22;17497;51.476;7.770;2022-10-16T14:44:53;21.20;99.90
30764;DHT22;17497;51.476;7.770;2022-10-16T14:47:25;21.10;99.90
30764;DHT22;17497;51.476;7.770;2022-10-16T14:49:54;20.80;99.90
30764;DHT22;17497;51.476;7.770;2022-10-16T14:52:22;20.40;99.90
30764;DHT22;17497;51.476;7.770;2022-10-16T14:54:50;20.10;99.90
30764;DHT22;17497;51.476;7.770;2022-10-16T14:57:23;19.90;99.90
30764;DHT22;17497;51.476;7.770;2022-10-16T14:59:50;19.70;99.90
30764;DHT22;17497;51.476;7.770;2022-10-16T15:02:30;19.50;99.90
30764;DHT22;17497;51.476;7.770;2022-10-16T15:04:59;19.40;99.90
30764;DHT22;17497;51.476;7.770;2022-10-16T15:07:28;19.30;99.90
30764;DHT22;17497;51.476;7.770;2022-10-16T15:09:55;19.10;99.90
30764;DHT22;17497;51.476;7.770;2022-10-16T15:12:23;19.10;99.90
30764;DHT22;17497;51.476;7.770;2022-10-16T15:14:50;19.10;99.90
30764;DHT22;17497;51.476;7.770;2022-10-16T15:17:16;19.10;99.90
30764;DHT22;17497;51.476;7.770;2022-10-16T15:19:47;19.10;99.90
30764;DHT22;17497;51.476;7.770;2022-10-16T15:22:14;19.20;99.90
30764;DHT22;17497;51.476;7.770;2022-10-16T15:24:41;19.10;99.90
30764;DHT22;17497;51.476;7.770;2022-10-16T15:27:08;19.00;99.90
30764;DHT22;17497;51.476;7.770;2022-10-16T15:29:34;18.90;99.90
30764;DHT22;17497;51.476;7.770;2022-10-16T15:32:01;18.80;99.90
30764;DHT22;17497;51.476;7.770;2022-10-16T15:34:28;18.60;99.90
30764;DHT22;17497;51.476;7.770;2022-10-16T15:36:54;18.50;99.90
30764;DHT22;17497;51.476;7.770;2022-10-16T15:39:23;18.50;99.90
30764;DHT22;17497;51.476;7.770;2022-10-16T15:41:49;18.40;99.90
30764;DHT22;17497;51.476;7.770;2022-10-16T15:44:18;18.30;99.90
30764;DHT22;17497;51.476;7.770;2022-10-16T15:46:45;18.40;99.90
30764;DHT22;17497;51.476;7.770;2022-10-16T15:49:13;18.40;99.90
30764;DHT22;17497;51.476;7.770;2022-10-16T15:51:41;18.30;99.90
30764;DHT22;17497;51.476;7.770;2022-10-16T15:54:08;18.30;99.90
30764;DHT22;17497;51.476;7.770;2022-10-16T15:56:35;18.20;99.90
30764;DHT22;17497;51.476;7.770;2022-10-16T15:59:03;18.10;99.90
30764;DHT22;17497;51.476;7.770;2022-10-16T16:01:36;18.10;99.90
30764;DHT22;17497;51.476;7.770;2022-10-16T16:04:03;18.00;99.90
30764;DHT22;17497;51.476;7.770;2022-10-16T16:06:41;17.90;99.90
30764;DHT22;17497;51.476;7.770;2022-10-16T16:09:12;17.90;99.90
30764;DHT22;17497;51.476;7.770;2022-10-16T16:11:40;17.80;99.90
30764;DHT22;17497;51.476;7.770;2022-10-16T16:14:07;17.80;99.90
30764;DHT22;17497;51.476;7.770;2022-10-16T16:16:36;17.80;99.90
30764;DHT22;17497;51.476;7.770;2022-10-16T16:19:05;17.70;99.90
30764;DHT22;17497;51.476;7.770;2022-10-16T16:21:37;17.60;99.90
30764;DHT22;17497;51.476;7.770;2022-10-16T16:24:04;17.60;99.90
30764;DHT22;17497;51.476;7.770;2022-10-16T16:26:35;17.50;99.90
30764;DHT22;17497;51.476;7.770;2022-10-16T16:29:06;17.50;99.90
30764;DHT22;17497;51.476;7.770;2022-10-16T16:31:33;17.40;99.90
30764;DHT22;17497;51.476;7.770;2022-10-16T16:34:01;17.40;99.90
30764;DHT22;17497;51.476;7.770;2022-10-16T16:36:27;17.30;99.90
30764;DHT22;17497;51.476;7.770;2022-10-16T16:38:54;17.30;99.90
30764;DHT22;17497;51.476;7.770;2022-10-16T16:41:26;17.30;99.90
30764;DHT22;17497;51.476;7.770;2022-10-16T16:43:53;17.30;99.90
30764;DHT22;17497;51.476;7.770;2022-10-16T16:46:21;17.30;99.90
30764;DHT22;17497;51.476;7.770;2022-10-16T16:48:48;17.20;99.90
30764;DHT22;17497;51.476;7.770;2022-10-16T16:51:19;17.20;99.90
30764;DHT22;17497;51.476;7.770;2022-10-16T16:53:48;17.20;99.90
30764;DHT22;17497;51.476;7.770;2022-10-16T16:56:16;17.20;99.90
30764;DHT22;17497;51.476;7.770;2022-10-16T16:58:51;17.20;99.90
30764;DHT22;17497;51.476;7.770;2022-10-16T17:01:18;17.10;99.90
30764;DHT22;17497;51.476;7.770;2022-10-16T17:03:49;17.10;99.90
30764;DHT22;17497;51.476;7.770;2022-10-16T17:06:18;17.10;99.90
30764;DHT22;17497;51.476;7.770;2022-10-16T17:08:47;17.10;99.90
30764;DHT22;17497;51.476;7.770;2022-10-16T17:11:21;17.10;99.90
30764;DHT22;17497;51.476;7.770;2022-10-16T17:13:50;17.10;99.90
30764;DHT22;17497;51.476;7.770;2022-10-16T17:16:28;17.00;99.90
30764;DHT22;17497;51.476;7.770;2022-10-16T17:18:59;17.00;99.90
30764;DHT22;17497;51.476;7.770;2022-10-16T17:21:26;17.00;99.90
30764;DHT22;17497;51.476;7.770;2022-10-16T17:23:53;17.00;99.90
30764;DHT22;17497;51.476;7.770;2022-10-16T17:26:20;17.10;99.90
30764;DHT22;17497;51.476;7.770;2022-10-16T17:28:51;17.10;99.90
30764;DHT22;17497;51.476;7.770;2022-10-16T17:31:24;17.10;99.90
30764;DHT22;17497;51.476;7.770;2022-10-16T17:33:51;17.10;99.90
30764;DHT22;17497;51.476;7.770;2022-10-16T17:36:19;17.10;99.90
30764;DHT22;17497;51.476;7.770;2022-10-16T17:38:46;17.10;99.90
30764;DHT22;17497;51.476;7.770;2022-10-16T17:41:22;17.10;99.90
30764;DHT22;17497;51.476;7.770;2022-10-16T17:43:50;17.00;99.90
30764;DHT22;17497;51.476;7.770;2022-10-16T17:46:19;17.00;99.90
30764;DHT22;17497;51.476;7.770;2022-10-16T17:48:47;17.00;99.90
30764;DHT22;17497;51.476;7.770;2022-10-16T17:51:17;16.90;99.90
30764;DHT22;17497;51.476;7.770;2022-10-16T17:53:50;16.90;99.90
30764;DHT22;17497;51.476;7.770;2022-10-16T17:56:18;16.80;99.90
30764;DHT22;17497;51.476;7.770;2022-10-16T17:58:48;16.80;99.90
30764;DHT22;17497;51.476;7.770;2022-10-16T18:01:20;16.80;99.90
30764;DHT22;17497;51.476;7.770;2022-10-16T18:03:52;16.70;99.90
30764;DHT22;17497;51.476;7.770;2022-10-16T18:06:19;16.70;99.90
30764;DHT22;17497;51.476;7.770;2022-10-16T18:08:49;16.70;99.90
30764;DHT22;17497;51.476;7.770;2022-10-16T18:11:16;16.60;99.90